Time;durP1;ratioP1;P1;durP2;ratioP2;P2;SDS_P1;SDS_P2;PMS_P1;PMS_P2;Temp;Humidity;BMP_temperature;BMP_pressure;BME280_temperature;BME280_humidity;BME280_pressure;Samples;Min_cycle;Max_cycle;Signal;HPM_P1;HPM_P2
2022/01/20 00:03:23;;;;;;;;;;;5.10;99.90;;;3.78;100.00;101328.72;4945892;28;19937;-76
2022/01/20 00:28:14;;;;;;;;;;;4.40;99.90;;;3.81;100.00;101344.41;4949200;28;19926;-77
2022/01/20 00:31:06;;;;;;;;;;;4.80;99.90;;;3.72;100.00;101339.03;4934389;29;19927;-76
2022/01/20 00:33:43;;;;;;;;;;;4.30;99.90;;;3.73;100.00;101343.38;4950728;28;19926;-76
2022/01/20 00:38:39;;;;;;;;;;;4.30;99.90;;;3.79;100.00;101339.19;4930113;29;19927;-78
2022/01/20 00:41:08;;;;;;;;;;;4.20;99.90;;;3.79;100.00;101349.59;4931069;29;19931;-77
2022/01/20 00:43:35;;;;;;;;;;;4.30;99.90;;;3.79;100.00;101348.69;4912913;29;19931;-77
2022/01/20 00:46:02;;;;;;;;;;;4.50;99.90;;;3.81;100.00;101342.69;4915764;29;19934;-78
2022/01/20 00:48:31;;;;;;;;;;;4.10;99.90;;;3.80;100.00;101351.34;4916570;29;20021;-75
2022/01/20 00:51:03;;;;;;;;;;;4.40;99.90;;;3.85;100.00;101348.84;4932224;29;20029;-77
2022/01/20 00:53:33;;;;;;;;;;;4.40;99.90;;;3.83;100.00;101367.03;4919171;29;19977;-77
2022/01/20 00:55:59;;;;;;;;;;;4.00;99.90;;;3.85;100.00;101351.44;4916626;29;19938;-75
2022/01/20 00:58:26;;;;;;;;;;;5.00;99.90;;;3.81;100.00;101357.41;4932291;29;20360;-77
2022/01/20 01:00:53;;;;;;;;;;;4.70;99.90;;;3.78;100.00;101357.38;4930998;29;19927;-77
2022/01/20 01:03:21;;;;;;;;;;;5.40;99.90;;;3.74;100.00;101360.75;4931164;29;19931;-77
2022/01/20 01:06:33;;;;;;;;;;;6.70;99.90;;;3.77;100.00;101371.22;4931081;29;19978;-78
2022/01/20 01:08:41;;;;;;;;;;;5.30;99.90;;;3.83;100.00;101371.38;4965616;28;20391;-77
2022/01/20 01:11:08;;;;;;;;;;;5.40;99.90;;;3.78;100.00;101372.97;4933569;28;20323;-77
2022/01/20 01:13:35;;;;;;;;;;;4.30;99.90;;;3.78;100.00;101376.47;4949850;29;20406;-77
2022/01/20 01:16:09;;;;;;;;;;;4.80;99.90;;;3.81;100.00;101373.94;4950652;29;20620;-77
2022/01/20 01:21:30;;;;;;;;;;;4.20;99.90;;;3.82;100.00;101369.59;4935887;29;19930;-76
2022/01/20 01:24:00;;;;;;;;;;;4.40;99.90;;;3.76;100.00;101353.84;4933307;29;20679;-76
2022/01/20 01:26:44;;;;;;;;;;;4.90;99.90;;;3.77;100.00;101361.72;4927504;29;19945;-76
2022/01/20 01:29:36;;;;;;;;;;;4.50;99.90;;;3.79;100.00;101367.81;4951593;29;20150;-76
2022/01/20 01:32:20;;;;;;;;;;;4.40;99.90;;;3.74;100.00;101356.41;4958959;29;19930;-76
2022/01/20 01:34:50;;;;;;;;;;;4.20;99.90;;;3.81;100.00;101354.81;4948116;28;19935;-76
2022/01/20 01:40:04;;;;;;;;;;;4.20;99.90;;;3.75;100.00;101354.72;4934734;28;20346;-76
2022/01/20 01:42:49;;;;;;;;;;;5.40;99.90;;;3.79;100.00;101354.81;4934154;29;20449;-75
2022/01/20 01:45:35;;;;;;;;;;;3.50;99.90;;;3.78;100.00;101368.66;4949247;29;20776;-77
2022/01/20 01:48:04;;;;;;;;;;;4.40;99.90;;;3.77;100.00;101359.09;4947781;28;19935;-76
2022/01/20 01:50:32;;;;;;;;;;;4.30;99.90;;;3.79;100.00;101365.22;4948798;28;19937;-77
2022/01/20 01:53:04;;;;;;;;;;;6.30;99.90;;;3.78;100.00;101353.06;4931789;29;19930;-75
2022/01/20 01:55:32;;;;;;;;;;;4.10;99.90;;;3.78;100.00;101346.94;4932141;29;19931;-78
2022/01/20 01:58:03;;;;;;;;;;;4.20;99.90;;;3.71;100.00;101352.91;4916951;29;19931;-76
2022/01/20 02:00:31;;;;;;;;;;;4.10;99.90;;;3.73;100.00;101359.00;4933256;29;19998;-77
2022/01/20 02:03:03;;;;;;;;;;;5.60;99.90;;;3.75;100.00;101354.72;4931450;29;19934;-77
2022/01/20 02:05:43;;;;;;;;;;;4.80;99.90;;;3.77;100.00;101353.00;4932363;29;19930;-75
2022/01/20 02:08:48;;;;;;;;;;;4.20;99.90;;;3.76;100.00;101364.28;4918801;29;20080;-77
2022/01/20 02:19:28;;;;;;;;;;;4.30;99.90;;;3.71;100.00;101355.50;4947670;28;19931;-77
2022/01/20 02:22:15;;;;;;;;;;;4.20;99.90;;;3.71;100.00;101360.72;4917736;29;19935;-77
2022/01/20 02:25:02;;;;;;;;;;;7.00;99.90;;;3.68;100.00;101367.59;4925373;29;19981;-76
2022/01/20 02:27:33;;;;;;;;;;;4.30;99.90;;;3.73;100.00;101372.03;4927245;29;20057;-77
2022/01/20 02:30:00;;;;;;;;;;;4.40;99.90;;;3.76;100.00;101369.47;4910386;29;20376;-77
2022/01/20 02:32:30;;;;;;;;;;;4.40;99.90;;;3.71;100.00;101371.13;4909917;29;20465;-77
2022/01/20 02:34:57;;;;;;;;;;;6.00;99.90;;;3.73;100.00;101364.22;4914220;28;19927;-77
2022/01/20 02:37:24;;;;;;;;;;;4.30;99.90;;;3.67;100.00;101364.97;4944711;28;20537;-77
2022/01/20 02:40:15;;;;;;;;;;;5.70;99.90;;;3.73;100.00;101366.81;4945013;28;19941;-77
2022/01/20 02:45:28;;;;;;;;;;;5.70;99.90;;;3.67;100.00;101368.47;4930871;29;20030;-76
2022/01/20 02:48:00;;;;;;;;;;;4.30;99.90;;;3.64;100.00;101362.31;4931448;29;19969;-77
2022/01/20 02:50:27;;;;;;;;;;;4.20;99.90;;;3.67;100.00;101346.75;4932131;28;20557;-76
2022/01/20 02:52:53;;;;;;;;;;;5.50;99.90;;;3.66;100.00;101353.66;4931316;29;19969;-76
2022/01/20 02:55:20;;;;;;;;;;;5.90;99.90;;;3.74;100.00;101353.81;4947107;28;19931;-78
2022/01/20 02:57:47;;;;;;;;;;;4.30;99.90;;;3.71;100.00;101350.28;4947953;28;19961;-76
2022/01/20 03:00:15;;;;;;;;;;;4.40;99.90;;;3.71;100.00;101350.28;4947717;29;19930;-77
2022/01/20 03:02:43;;;;;;;;;;;4.30;99.90;;;3.67;100.00;101354.56;4930983;29;19937;-78
2022/01/20 03:05:13;;;;;;;;;;;7.00;99.90;;;3.72;100.00;101346.84;4947308;28;20008;-78
2022/01/20 03:07:45;;;;;;;;;;;4.30;99.90;;;3.67;100.00;101346.75;4947612;29;19931;-77
2022/01/20 03:10:13;;;;;;;;;;;4.40;99.90;;;3.72;100.00;101357.25;4933944;29;19936;-75
2022/01/20 03:12:40;;;;;;;;;;;4.30;99.90;;;3.71;100.00;101352.91;4962435;28;19945;-77
2022/01/20 03:15:07;;;;;;;;;;;5.00;99.90;;;3.67;100.00;101360.66;4949871;29;19998;-77
2022/01/20 03:17:35;;;;;;;;;;;4.10;99.90;;;3.69;100.00;101353.75;4936151;29;19930;-77
2022/01/20 03:20:02;;;;;;;;;;;4.30;99.90;;;3.70;100.00;101365.03;4952223;28;19938;-78
2022/01/20 03:22:29;;;;;;;;;;;5.30;99.90;;;3.77;100.00;101355.59;4935347;29;19973;-78
2022/01/20 03:24:57;;;;;;;;;;;4.20;99.90;;;3.72;100.00;101357.25;4951995;28;20335;-77
2022/01/20 03:27:25;;;;;;;;;;;6.40;99.90;;;3.69;100.00;101358.06;4949907;29;19927;-79
2022/01/20 03:29:52;;;;;;;;;;;4.40;99.90;;;3.72;100.00;101359.84;4949597;28;19972;-77
2022/01/20 03:32:19;;;;;;;;;;;5.10;99.90;;;3.65;100.00;101354.50;4948946;28;20346;-78
2022/01/20 03:34:45;;;;;;;;;;;6.60;99.90;;;3.69;100.00;101347.66;4947255;28;19954;-76
2022/01/20 03:37:14;;;;;;;;;;;7.10;99.90;;;3.58;100.00;101355.25;4948049;29;20333;-77
2022/01/20 03:39:51;;;;;;;;;;;4.30;99.90;;;3.64;100.00;101362.31;4933112;28;20022;-77
2022/01/20 03:42:18;;;;;;;;;;;4.50;99.90;;;3.62;100.00;101353.59;4931690;29;20380;-76
2022/01/20 03:44:45;;;;;;;;;;;4.10;99.90;;;3.60;100.00;101353.53;4930647;29;19930;-78
2022/01/20 03:47:12;;;;;;;;;;;4.30;99.90;;;3.60;100.00;101347.47;4946768;29;20334;-77
2022/01/20 03:50:05;;;;;;;;;;;4.20;99.90;;;3.64;100.00;101352.75;4931459;28;20040;-77
2022/01/20 03:52:36;;;;;;;;;;;6.00;99.90;;;3.64;100.00;101359.69;4947330;29;19926;-76
2022/01/20 03:55:03;;;;;;;;;;;4.10;99.90;;;3.68;100.00;101366.72;4931316;29;19958;-76
2022/01/20 03:57:46;;;;;;;;;;;4.30;99.90;;;3.67;100.00;101355.44;4933651;29;19931;-77
2022/01/20 04:00:30;;;;;;;;;;;5.40;99.90;;;3.65;100.00;101353.66;4946853;28;19930;-77
2022/01/20 04:03:16;;;;;;;;;;;4.30;99.90;;;3.61;100.00;101346.63;4932594;29;19992;-77
2022/01/20 04:05:56;;;;;;;;;;;4.10;99.90;;;3.63;100.00;101347.53;4933160;29;19958;-77
2022/01/20 04:08:43;;;;;;;;;;;4.10;99.90;;;3.55;100.00;101348.25;4932206;29;19931;-76
2022/01/20 04:11:21;;;;;;;;;;;4.10;99.90;;;3.57;100.00;101350.88;4947158;28;19930;-77
2022/01/20 04:13:49;;;;;;;;;;;4.20;99.90;;;3.55;100.00;101363.00;4945816;28;19933;-76
2022/01/20 04:17:03;;;;;;;;;;;6.80;99.90;;;3.55;100.00;101376.88;4933950;29;19937;-77
2022/01/20 04:19:32;;;;;;;;;;;4.10;99.90;;;3.59;100.00;101376.94;4948261;28;19931;-76
2022/01/20 04:22:00;;;;;;;;;;;4.20;99.90;;;3.51;100.00;101374.16;4912166;29;20001;-77
2022/01/20 04:24:28;;;;;;;;;;;4.10;99.90;;;3.53;100.00;101373.34;4911233;29;20451;-78
2022/01/20 04:26:56;;;;;;;;;;;5.00;99.90;;;3.50;100.00;101370.69;4928160;29;19931;-77
2022/01/20 04:29:23;;;;;;;;;;;4.10;99.90;;;3.48;100.00;101371.50;4912976;29;19965;-77
2022/01/20 04:31:50;;;;;;;;;;;4.10;99.90;;;3.43;100.00;101387.00;4928936;29;20670;-76
2022/01/20 04:34:19;;;;;;;;;;;3.90;99.90;;;3.44;100.00;101385.28;4911482;29;19934;-77
2022/01/20 04:36:48;;;;;;;;;;;4.00;99.90;;;3.45;100.00;101389.66;4911763;29;20307;-78
2022/01/20 04:39:21;;;;;;;;;;;6.70;99.90;;;3.39;100.00;101374.78;4911772;29;20045;-77
2022/01/20 04:41:49;;;;;;;;;;;4.00;99.90;;;3.37;100.00;101386.88;4927190;29;20332;-77
2022/01/20 04:44:35;;;;;;;;;;;6.20;99.90;;;3.37;100.00;101385.16;4910733;29;19946;-77
2022/01/20 04:58:16;;;;;;;;;;;4.10;99.90;;;3.39;100.00;101378.28;4915864;29;19934;-78
2022/01/20 05:00:43;;;;;;;;;;;5.80;99.90;;;3.38;100.00;101373.91;4926774;29;20029;-76
2022/01/20 05:03:28;;;;;;;;;;;3.90;99.90;;;3.42;100.00;101366.19;4913657;29;20028;-77
2022/01/20 05:06:01;;;;;;;;;;;5.00;99.90;;;3.39;100.00;101362.66;4912626;29;19931;-77
2022/01/20 05:08:30;;;;;;;;;;;3.90;99.90;;;3.42;100.00;101368.78;4911570;29;19927;-77
2022/01/20 05:11:02;;;;;;;;;;;3.90;99.90;;;3.34;100.00;101369.47;4913091;29;20480;-76
2022/01/20 05:13:35;;;;;;;;;;;5.30;99.90;;;3.32;100.00;101363.34;4971036;28;20006;-76
2022/01/20 05:16:04;;;;;;;;;;;6.10;99.90;;;3.32;100.00;101365.09;4930711;28;20212;-77
2022/01/20 05:18:31;;;;;;;;;;;4.00;99.90;;;3.34;100.00;101372.06;4946336;29;19975;-76
2022/01/20 05:20:58;;;;;;;;;;;4.00;99.90;;;3.26;100.00;101371.03;4945987;28;20284;-76
2022/01/20 05:23:25;;;;;;;;;;;5.00;99.90;;;3.25;100.00;101367.53;4944896;28;20025;-77
2022/01/20 05:25:52;;;;;;;;;;;6.40;99.90;;;3.22;100.00;101364.88;4943342;28;19937;-75
2022/01/20 05:28:21;;;;;;;;;;;3.70;99.90;;;3.16;100.00;101358.66;4945747;28;19937;-77
2022/01/20 05:30:48;;;;;;;;;;;3.90;99.90;;;3.17;100.00;101363.91;4930142;29;19937;-77
2022/01/20 05:33:28;;;;;;;;;;;3.90;99.90;;;3.15;100.00;101373.41;4930004;29;20551;-79
2022/01/20 05:35:55;;;;;;;;;;;4.30;99.90;;;3.16;100.00;101376.88;4914333;29;19949;-78
2022/01/20 05:38:22;;;;;;;;;;;5.50;99.90;;;3.07;100.00;101370.63;4944048;28;19933;-78
2022/01/20 05:40:51;;;;;;;;;;;3.70;99.90;;;3.08;100.00;101358.50;4930125;29;19942;-76
2022/01/20 05:43:19;;;;;;;;;;;3.60;99.90;;;3.11;100.00;101361.16;4945065;29;19969;-77
2022/01/20 05:45:48;;;;;;;;;;;6.20;99.90;;;3.04;100.00;101354.06;4945516;29;19952;-76
2022/01/20 05:48:20;;;;;;;;;;;3.60;99.90;;;3.01;100.00;101361.81;4929958;29;19927;-76
2022/01/20 05:51:18;;;;;;;;;;;3.80;99.90;;;2.97;100.00;101363.44;4934032;28;19948;-77
2022/01/20 05:53:45;;;;;;;;;;;4.60;99.90;;;2.90;100.00;101365.03;4928723;29;19939;-78
2022/01/20 05:56:14;;;;;;;;;;;3.40;99.90;;;2.89;100.00;101360.66;4945037;29;20017;-77
2022/01/20 05:58:41;;;;;;;;;;;4.70;99.90;;;2.87;100.00;101371.84;4929565;29;19934;-76
2022/01/20 06:01:11;;;;;;;;;;;5.40;99.90;;;2.79;100.00;101369.06;4930144;29;19953;-77
2022/01/20 06:03:40;;;;;;;;;;;3.50;99.90;;;2.78;100.00;101368.22;4945021;29;20004;-77
2022/01/20 06:06:13;;;;;;;;;;;3.40;99.90;;;2.83;100.00;101382.19;4944020;28;20017;-77
2022/01/20 06:08:41;;;;;;;;;;;3.40;99.90;;;2.78;100.00;101381.22;4928632;29;20754;-77
2022/01/20 06:11:09;;;;;;;;;;;3.40;99.90;;;2.75;100.00;101369.84;4943691;28;20395;-77
2022/01/20 06:13:37;;;;;;;;;;;4.80;99.90;;;2.73;100.00;101389.72;4926147;28;20095;-77
2022/01/20 06:16:05;;;;;;;;;;;4.30;99.90;;;2.72;100.00;101388.84;4910298;29;19937;-77
2022/01/20 06:18:32;;;;;;;;;;;3.50;99.90;;;2.72;100.00;101381.03;4926305;29;19927;-77
2022/01/20 06:21:01;;;;;;;;;;;3.40;99.90;;;2.69;100.00;101374.06;4910380;28;19939;-78
2022/01/20 06:23:28;;;;;;;;;;;3.50;99.90;;;2.64;100.00;101367.84;4912730;29;19927;-77
2022/01/20 06:25:56;;;;;;;;;;;3.40;99.90;;;2.64;100.00;101364.41;4913824;29;20571;-76
2022/01/20 06:28:24;;;;;;;;;;;3.30;99.90;;;2.62;100.00;101372.16;4913806;29;19969;-77
2022/01/20 06:30:51;;;;;;;;;;;5.30;99.90;;;2.59;100.00;101371.22;4913526;28;20020;-77
2022/01/20 06:33:18;;;;;;;;;;;3.40;99.90;;;2.59;100.00;101373.81;4913634;29;19927;-77
2022/01/20 06:35:54;;;;;;;;;;;5.40;99.90;;;2.57;100.00;101373.75;4915127;29;19937;-77
2022/01/20 06:38:23;;;;;;;;;;;3.30;99.90;;;2.52;100.00;101376.22;4929127;29;19933;-77
2022/01/20 06:40:51;;;;;;;;;;;6.00;99.90;;;2.53;100.00;101367.59;4913553;28;20364;-78
2022/01/20 06:43:18;;;;;;;;;;;3.50;99.90;;;2.51;100.00;101384.00;4913457;29;20408;-76
2022/01/20 06:45:46;;;;;;;;;;;3.00;99.90;;;2.53;100.00;101385.78;4915297;29;20017;-76
2022/01/20 06:48:19;;;;;;;;;;;3.10;99.90;;;2.56;100.00;101382.41;4929366;29;19937;-77
2022/01/20 06:51:05;;;;;;;;;;;4.60;99.90;;;2.56;100.00;101379.81;4929400;29;19938;-77
2022/01/20 06:53:32;;;;;;;;;;;5.10;99.90;;;2.55;100.00;101386.69;4913352;29;19927;-77
2022/01/20 06:55:59;;;;;;;;;;;2.90;99.90;;;2.60;100.00;101389.41;4929329;29;19938;-76
2022/01/20 06:58:26;;;;;;;;;;;5.20;99.90;;;2.61;100.00;101388.56;4913241;29;20409;-77
2022/01/20 07:00:53;;;;;;;;;;;3.10;99.90;;;2.64;100.00;101383.44;4929070;29;19927;-77
2022/01/20 07:03:25;;;;;;;;;;;5.50;99.90;;;2.65;100.00;101387.84;4913534;29;19988;-77
2022/01/20 07:05:52;;;;;;;;;;;3.60;99.90;;;2.65;100.00;101387.84;4928648;29;19927;-77
2022/01/20 07:08:21;;;;;;;;;;;5.80;99.90;;;2.74;100.00;101396.69;4913232;29;19965;-77
2022/01/20 07:10:48;;;;;;;;;;;3.30;99.90;;;2.72;100.00;101408.78;4897140;29;19933;-76
2022/01/20 07:13:15;;;;;;;;;;;3.30;99.90;;;2.74;100.00;101415.78;4912520;29;19927;-76
2022/01/20 07:15:42;;;;;;;;;;;3.30;99.90;;;2.76;100.00;101414.09;4929104;29;19937;-76
2022/01/20 07:18:09;;;;;;;;;;;5.50;99.90;;;2.83;100.00;101422.91;4947931;28;19930;-76
2022/01/20 07:20:36;;;;;;;;;;;5.10;99.90;;;2.86;100.00;101424.69;4947955;29;20335;-76
2022/01/20 07:23:10;;;;;;;;;;;4.40;99.90;;;2.90;100.00;101432.63;4932691;29;20458;-79
2022/01/20 07:25:52;;;;;;;;;;;3.50;99.90;;;2.89;100.00;101440.38;4948018;28;19927;-76
2022/01/20 07:28:20;;;;;;;;;;;5.60;99.90;;;2.90;100.00;101444.75;4932107;29;19937;-76
2022/01/20 07:30:48;;;;;;;;;;;3.60;99.90;;;2.93;100.00;101461.28;4932096;28;19980;-77
2022/01/20 07:33:15;;;;;;;;;;;6.10;99.90;;;2.93;100.00;101458.69;4930619;29;20639;-76
2022/01/20 07:35:43;;;;;;;;;;;3.10;99.90;;;2.96;100.00;101442.28;4931554;29;19931;-77
2022/01/20 07:38:10;;;;;;;;;;;3.50;99.90;;;3.00;100.00;101438.91;4932409;29;19937;-77
2022/01/20 07:40:38;;;;;;;;;;;3.50;99.90;;;2.99;100.00;101434.56;4931643;29;20421;-77
2022/01/20 07:43:06;;;;;;;;;;;3.60;99.90;;;3.03;100.00;101440.72;4947307;29;19972;-77
2022/01/20 07:45:53;;;;;;;;;;;3.50;99.90;;;3.04;100.00;101445.94;4948697;28;19927;-76
2022/01/20 07:48:47;;;;;;;;;;;3.80;99.90;;;3.01;100.00;101458.00;4923014;29;20072;-76
2022/01/20 07:51:17;;;;;;;;;;;3.60;99.90;;;3.07;100.00;101466.84;4932102;28;19962;-76
2022/01/20 07:53:45;;;;;;;;;;;4.20;99.90;;;3.09;100.00;101480.75;4931586;29;19934;-76
2022/01/20 07:56:12;;;;;;;;;;;3.70;99.90;;;3.11;100.00;101484.28;4931485;29;19980;-77
2022/01/20 07:58:41;;;;;;;;;;;5.70;99.90;;;3.16;100.00;101480.91;4948497;28;19942;-77
2022/01/20 08:01:08;;;;;;;;;;;3.70;99.90;;;3.14;100.00;101479.97;4947376;28;20368;-76
2022/01/20 08:03:42;;;;;;;;;;;6.40;99.90;;;3.14;100.00;101477.38;4946248;28;19960;-76
2022/01/20 08:06:14;;;;;;;;;;;3.80;99.90;;;3.09;100.00;101485.06;4960324;28;19958;-77
2022/01/20 08:08:46;;;;;;;;;;;3.90;99.90;;;3.10;100.00;101487.72;4931303;28;19938;-76
2022/01/20 08:11:36;;;;;;;;;;;4.90;99.90;;;3.28;100.00;101485.50;4930027;29;20368;-79
2022/01/20 08:14:41;;;;;;;;;;;3.80;99.90;;;3.30;100.00;101481.25;4916889;29;20600;-77
2022/01/20 08:17:12;;;;;;;;;;;3.80;99.90;;;3.26;100.00;101470.75;4913084;29;20010;-78
2022/01/20 08:19:44;;;;;;;;;;;5.30;99.90;;;3.23;100.00;101465.47;4915325;29;19931;-77
2022/01/20 08:22:13;;;;;;;;;;;3.90;99.90;;;3.24;100.00;101471.56;4913089;29;19941;-78
2022/01/20 08:25:05;;;;;;;;;;;7.10;99.90;;;3.29;100.00;101477.75;4927778;29;19973;-78
2022/01/20 08:27:32;;;;;;;;;;;3.80;99.90;;;3.34;100.00;101489.13;4912257;29;19931;-77
2022/01/20 08:29:59;;;;;;;;;;;5.40;99.90;;;3.31;100.00;101486.47;4911975;29;19931;-76
2022/01/20 08:32:26;;;;;;;;;;;3.90;99.90;;;3.34;100.00;101483.06;4911883;29;19977;-77
2022/01/20 08:35:06;;;;;;;;;;;5.60;99.90;;;3.24;100.00;101488.03;4913334;29;19930;-77
2022/01/20 08:37:43;;;;;;;;;;;3.70;99.90;;;3.15;100.00;101492.16;4927349;29;19930;-78
2022/01/20 08:40:12;;;;;;;;;;;5.00;99.90;;;3.18;100.00;101494.81;4912772;28;19980;-78
2022/01/20 08:42:41;;;;;;;;;;;3.70;99.90;;;3.21;100.00;101492.31;4911382;29;20422;-78
2022/01/20 08:45:09;;;;;;;;;;;5.60;99.90;;;3.22;100.00;101497.53;4926793;29;20401;-78
2022/01/20 08:47:36;;;;;;;;;;;3.80;99.90;;;3.28;100.00;101507.22;4947443;28;19983;-78
2022/01/20 08:50:05;;;;;;;;;;;6.00;99.90;;;3.33;100.00;101518.59;4949989;28;20320;-78
2022/01/20 08:52:32;;;;;;;;;;;3.80;99.90;;;3.45;100.00;101514.53;4948683;28;19941;-77
2022/01/20 08:55:00;;;;;;;;;;;3.90;99.90;;;3.51;100.00;101514.69;4930498;29;20025;-78
2022/01/20 08:57:44;;;;;;;;;;;5.50;99.90;;;3.60;100.00;101508.84;4933241;29;19946;-78
2022/01/20 09:00:15;;;;;;;;;;;4.00;99.90;;;3.63;100.00;101509.75;4912896;29;19976;-78
2022/01/20 09:02:54;;;;;;;;;;;4.00;99.90;;;3.62;100.00;101504.53;4912601;29;19931;-77
2022/01/20 09:05:22;;;;;;;;;;;4.20;99.90;;;3.64;100.00;101508.91;4911402;29;19931;-78
2022/01/20 09:07:52;;;;;;;;;;;5.30;99.90;;;3.66;100.00;101519.38;4907676;29;19927;-78
2022/01/20 09:10:20;;;;;;;;;;;6.00;99.90;;;3.71;100.00;101532.50;4914746;29;20414;-78
2022/01/20 09:15:29;;;;;;;;;;;5.60;99.90;;;3.73;100.00;101526.47;4930583;29;19980;-77
2022/01/20 09:18:19;;;;;;;;;;;6.60;99.90;;;3.85;100.00;101514.59;4942813;29;19938;-78
2022/01/20 09:20:46;;;;;;;;;;;4.30;99.90;;;3.96;100.00;101506.16;4914064;29;20000;-78
2022/01/20 09:23:14;;;;;;;;;;;4.30;99.90;;;4.03;100.00;101495.88;4906540;29;19930;-78
2022/01/20 09:25:42;;;;;;;;;;;5.60;99.90;;;4.18;100.00;101490.09;4930058;29;19934;-79
2022/01/20 09:28:09;;;;;;;;;;;4.70;99.90;;;4.24;100.00;101485.03;4946627;28;20042;-79
2022/01/20 09:30:39;;;;;;;;;;;4.70;99.90;;;4.34;100.00;101499.97;4945335;29;19936;-78
2022/01/20 09:33:16;;;;;;;;;;;4.80;99.90;;;4.35;100.00;101475.69;4952159;28;19937;-78
2022/01/20 09:35:44;;;;;;;;;;;7.00;99.90;;;4.39;100.00;101493.16;4931324;29;20013;-78
2022/01/20 09:38:14;;;;;;;;;;;5.10;99.90;;;4.49;100.00;101496.81;4961198;28;20042;-78
2022/01/20 09:40:43;;;;;;;;;;;4.90;99.90;;;4.59;100.00;101491.75;4951789;28;19935;-78
2022/01/20 09:43:14;;;;;;;;;;;5.00;99.90;;;4.58;100.00;101488.28;4932005;28;20652;-77
2022/01/20 09:45:44;;;;;;;;;;;5.10;99.90;;;4.62;100.00;101481.41;4930450;29;20290;-77
2022/01/20 09:48:11;;;;;;;;;;;5.50;99.90;;;4.71;100.00;101483.31;4959599;28;19930;-77
2022/01/20 09:51:06;;;;;;;;;;;5.20;99.90;;;4.77;100.00;101476.47;4933829;28;20479;-78
2022/01/20 09:53:44;;;;;;;;;;;7.20;99.90;;;4.91;100.00;101481.94;4927852;29;19926;-79
2022/01/20 09:56:32;;;;;;;;;;;5.20;99.90;;;4.97;100.00;101483.75;4931572;29;20080;-78
2022/01/20 09:59:00;;;;;;;;;;;5.30;99.90;;;5.00;100.00;101499.47;4929651;29;20457;-78
2022/01/20 10:01:45;;;;;;;;;;;5.50;99.90;;;5.04;100.00;101508.22;4961422;28;19930;-78
2022/01/20 10:04:29;;;;;;;;;;;5.50;99.90;;;5.18;100.00;101511.06;4944268;28;20049;-78
2022/01/20 10:07:06;;;;;;;;;;;5.60;99.90;;;5.20;100.00;101518.06;4977774;28;19934;-79
2022/01/20 10:09:42;;;;;;;;;;;5.90;99.90;;;5.23;100.00;101519.88;4945956;28;20493;-77
2022/01/20 10:12:34;;;;;;;;;;;5.80;99.90;;;5.20;100.00;101517.19;4961476;28;19936;-78
2022/01/20 10:15:13;;;;;;;;;;;5.80;99.90;;;5.24;100.00;101525.09;4950115;29;19934;-79
2022/01/20 10:17:45;;;;;;;;;;;7.50;99.90;;;5.24;100.00;101529.44;4954487;29;19986;-79
2022/01/20 10:20:16;;;;;;;;;;;5.80;99.90;;;5.19;100.00;101526.75;4951302;28;19976;-79
2022/01/20 10:23:04;;;;;;;;;;;5.70;99.90;;;5.18;100.00;101526.72;4949930;28;20310;-76
2022/01/20 10:25:41;;;;;;;;;;;6.80;99.90;;;5.23;100.00;101523.34;4944651;29;19931;-76
2022/01/20 10:29:01;;;;;;;;;;;8.00;99.90;;;5.23;100.00;101536.38;4959706;28;20003;-76
2022/01/20 10:31:37;;;;;;;;;;;5.70;99.90;;;5.16;100.00;101534.53;4935113;28;19938;-76
2022/01/20 10:34:33;;;;;;;;;;;8.00;99.90;;;5.22;100.00;101529.41;4950466;28;19930;-76
2022/01/20 10:37:18;;;;;;;;;;;5.60;99.90;;;5.27;100.00;101547.75;4951385;28;20021;-78
2022/01/20 10:40:11;;;;;;;;;;;6.40;99.90;;;5.32;100.00;101550.44;4945628;28;20842;-78
2022/01/20 10:42:46;;;;;;;;;;;5.80;99.90;;;5.25;100.00;101567.72;4952059;28;19945;-78
2022/01/20 10:45:24;;;;;;;;;;;5.70;99.90;;;5.18;100.00;101571.06;4928239;29;19930;-77
2022/01/20 10:47:54;;;;;;;;;;;5.70;99.90;;;5.06;100.00;101582.16;4918878;28;19931;-77
2022/01/20 10:50:28;;;;;;;;;;;8.00;99.90;;;4.94;100.00;101575.00;4911058;29;19941;-77
2022/01/20 10:52:59;;;;;;;;;;;6.10;99.90;;;4.86;100.00;101571.34;4938848;28;19937;-77
2022/01/20 10:55:33;;;;;;;;;;;7.20;99.90;;;4.83;100.00;101566.94;4946390;28;19938;-77
2022/01/20 10:58:30;;;;;;;;;;;7.60;99.90;;;4.83;100.00;101567.84;4929765;29;20037;-77
2022/01/20 11:01:03;;;;;;;;;;;5.40;99.90;;;4.82;100.00;101560.88;4970102;28;19931;-77
2022/01/20 11:03:47;;;;;;;;;;;5.20;99.90;;;4.77;100.00;101551.22;4946740;28;20409;-77
2022/01/20 11:06:19;;;;;;;;;;;6.00;99.90;;;4.87;100.00;101547.03;4931910;29;19931;-77
2022/01/20 11:08:54;;;;;;;;;;;5.40;99.90;;;4.83;100.00;101548.69;4948957;29;19930;-78
2022/01/20 11:11:34;;;;;;;;;;;7.20;99.90;;;4.90;100.00;101553.19;4934097;29;19926;-79
2022/01/20 11:14:11;;;;;;;;;;;6.60;99.90;;;4.93;100.00;101542.81;4948048;28;20469;-78
2022/01/20 11:16:39;;;;;;;;;;;5.50;99.90;;;4.94;100.00;101547.19;4932175;29;19927;-79
2022/01/20 11:19:19;;;;;;;;;;;5.50;99.90;;;4.90;100.00;101547.09;4950001;28;20521;-78
2022/01/20 11:21:47;;;;;;;;;;;5.50;99.90;;;4.95;100.00;101535.88;4963392;28;20544;-79
2022/01/20 11:24:16;;;;;;;;;;;7.20;99.90;;;5.02;100.00;101538.63;4931641;29;19937;-78
2022/01/20 11:27:03;;;;;;;;;;;6.30;99.90;;;5.08;100.00;101529.19;4961677;28;19960;-78
2022/01/20 11:29:47;;;;;;;;;;;5.50;99.90;;;5.14;100.00;101522.31;4952995;28;19934;-77
2022/01/20 11:33:00;;;;;;;;;;;5.80;99.90;;;5.11;100.00;101530.94;4915661;29;19935;-80
2022/01/20 11:35:48;;;;;;;;;;;5.70;99.90;;;5.08;100.00;101531.78;4940151;28;19928;-79
2022/01/20 11:38:34;;;;;;;;;;;5.60;99.90;;;4.95;100.00;101530.69;4957529;28;19930;-79
2022/01/20 11:41:03;;;;;;;;;;;5.50;99.90;;;4.88;100.00;101531.44;4916992;28;19934;-80
2022/01/20 11:43:36;;;;;;;;;;;6.10;99.90;;;4.94;100.00;101538.50;4782402;29;19939;-79
2022/01/20 11:46:07;;;;;;;;;;;5.50;99.90;;;4.90;100.00;101541.88;4931073;29;19926;-79
2022/01/20 11:48:34;;;;;;;;;;;5.40;99.90;;;4.77;100.00;101540.78;4931504;29;19940;-79
2022/01/20 11:51:08;;;;;;;;;;;5.30;99.90;;;4.73;100.00;101534.63;4930200;29;19961;-79
2022/01/20 11:53:41;;;;;;;;;;;5.40;99.90;;;4.76;100.00;101521.66;4946008;29;19937;-79
2022/01/20 11:56:10;;;;;;;;;;;5.30;99.90;;;4.77;100.00;101514.69;4948474;28;20024;-78
2022/01/20 11:58:37;;;;;;;;;;;5.80;99.90;;;4.83;100.00;101515.69;4947111;29;19953;-79
2022/01/20 12:01:07;;;;;;;;;;;5.90;99.90;;;4.85;100.00;101523.56;4948313;28;20049;-79
2022/01/20 12:03:37;;;;;;;;;;;5.30;99.90;;;4.91;100.00;101512.31;4918914;29;20025;-79
2022/01/20 12:06:14;;;;;;;;;;;5.40;99.90;;;4.88;100.00;101510.56;4918204;29;20021;-78
2022/01/20 12:08:54;;;;;;;;;;;7.00;99.90;;;4.87;100.00;101498.38;4955249;28;19938;-78
2022/01/20 12:11:33;;;;;;;;;;;6.30;99.90;;;4.92;100.00;101506.28;4951414;28;19996;-78
2022/01/20 12:14:07;;;;;;;;;;;5.10;99.90;;;4.91;100.00;101510.63;4982439;28;19936;-78
2022/01/20 12:16:40;;;;;;;;;;;7.40;99.90;;;4.90;100.00;101514.06;4980307;28;20721;-79
2022/01/20 12:19:10;;;;;;;;;;;5.30;99.90;;;4.93;100.00;101515.88;4963932;28;20644;-79
2022/01/20 12:21:38;;;;;;;;;;;5.40;99.90;;;4.99;100.00;101518.56;4948297;28;20045;-79
2022/01/20 12:24:09;;;;;;;;;;;5.30;99.90;;;5.00;100.00;101522.06;4963245;28;20610;-78
2022/01/20 12:26:36;;;;;;;;;;;5.30;99.90;;;5.00;100.00;101522.94;4978825;28;19931;-79
2022/01/20 12:29:06;;;;;;;;;;;7.80;99.90;;;4.98;100.00;101522.03;4980018;28;20397;-78
2022/01/20 12:31:49;;;;;;;;;;;5.40;99.90;;;5.00;100.00;101520.31;4950321;28;19938;-79
2022/01/20 12:34:16;;;;;;;;;;;7.30;99.90;;;5.00;100.00;101522.06;4931692;29;20353;-78
2022/01/20 12:36:55;;;;;;;;;;;5.50;99.90;;;5.05;100.00;101515.19;4965236;28;20025;-78
2022/01/20 12:39:28;;;;;;;;;;;5.40;99.90;;;5.09;100.00;101522.22;4963999;28;19930;-78
2022/01/20 12:42:00;;;;;;;;;;;5.50;99.90;;;5.07;100.00;101522.22;4964631;28;19936;-77